Time;durP1;ratioP1;P1;durP2;ratioP2;P2;SDS_P1;SDS_P2;PMS_P1;PMS_P2;Temp;Humidity;BMP_temperature;BMP_pressure;BME280_temperature;BME280_humidity;BME280_pressure;Samples;Min_cycle;Max_cycle;Signal;HPM_P1;HPM_P2
2023/01/26 00:01:20;;;;;;;145.30;44.43;;;-1.20;99.90;;;;;;5030627;28;20030;-52
2023/01/26 00:03:47;;;;;;;152.43;45.67;;;-1.10;99.90;;;;;;5030249;28;20532;-53
2023/01/26 00:06:15;;;;;;;141.23;40.93;;;-1.10;99.90;;;;;;5030660;28;20029;-55
2023/01/26 00:08:43;;;;;;;142.43;42.80;;;-1.10;99.90;;;;;;5030403;28;20034;-50
2023/01/26 00:11:11;;;;;;;149.03;45.67;;;-1.20;99.90;;;;;;5030387;28;20061;-53
2023/01/26 00:13:37;;;;;;;148.73;43.20;;;-1.20;99.90;;;;;;5030151;28;20083;-52
2023/01/26 00:16:03;;;;;;;151.57;45.47;;;-1.20;99.90;;;;;;5030644;28;20040;-53
2023/01/26 00:18:30;;;;;;;163.80;47.73;;;-1.30;99.90;;;;;;5030265;28;20113;-53
2023/01/26 00:20:57;;;;;;;156.70;46.47;;;-1.30;99.90;;;;;;5030798;28;20490;-53
2023/01/26 00:23:23;;;;;;;147.07;42.70;;;-1.30;99.90;;;;;;5029959;28;20029;-53
2023/01/26 00:25:49;;;;;;;144.47;43.77;;;-1.20;99.90;;;;;;5030375;28;20040;-52
2023/01/26 00:28:15;;;;;;;160.67;47.27;;;-1.30;99.90;;;;;;5030191;28;20026;-50
2023/01/26 00:30:40;;;;;;;150.93;44.67;;;-1.30;99.90;;;;;;5012633;28;20037;-53
2023/01/26 00:33:06;;;;;;;141.60;43.93;;;-1.30;99.90;;;;;;5031213;28;20272;-54
2023/01/26 00:35:32;;;;;;;145.77;45.33;;;-1.30;99.90;;;;;;5000410;28;20021;-53
2023/01/26 00:37:58;;;;;;;154.20;47.33;;;-1.30;99.90;;;;;;5016452;28;20433;-52
2023/01/26 00:40:24;;;;;;;146.67;42.73;;;-1.40;99.90;;;;;;5034094;28;20037;-53
2023/01/26 00:42:53;;;;;;;155.63;44.67;;;-1.30;99.90;;;;;;5016480;28;20538;-50
2023/01/26 00:45:19;;;;;;;156.87;45.23;;;-1.30;99.90;;;;;;5034203;28;20140;-53
2023/01/26 00:47:45;;;;;;;154.83;45.67;;;-1.30;99.90;;;;;;5016323;28;20036;-53
2023/01/26 00:50:11;;;;;;;149.27;43.77;;;-1.30;99.90;;;;;;5034241;28;20120;-52
2023/01/26 00:52:37;;;;;;;162.27;45.60;;;-1.30;99.90;;;;;;5034108;28;20064;-55
2023/01/26 00:55:03;;;;;;;152.30;46.50;;;-1.30;99.90;;;;;;5034177;28;20029;-54
2023/01/26 00:57:29;;;;;;;159.33;46.63;;;-1.30;99.90;;;;;;5034064;28;20069;-51
2023/01/26 00:59:55;;;;;;;160.43;44.13;;;-1.30;99.90;;;;;;5034019;28;20025;-50
2023/01/26 01:02:23;;;;;;;157.67;46.70;;;-1.30;99.90;;;;;;5033993;28;20032;-54
2023/01/26 01:04:49;;;;;;;156.90;45.23;;;-1.30;99.90;;;;;;5033836;28;20021;-54
2023/01/26 01:07:15;;;;;;;159.17;47.03;;;-1.30;99.90;;;;;;5015963;28;20028;-53
2023/01/26 01:09:40;;;;;;;154.00;43.90;;;-1.30;99.90;;;;;;5033760;28;20481;-53
2023/01/26 01:12:06;;;;;;;155.83;44.70;;;-1.30;99.90;;;;;;5016112;28;20110;-53
2023/01/26 01:14:32;;;;;;;146.97;41.60;;;-1.30;99.90;;;;;;5033259;28;20029;-51
2023/01/26 01:16:58;;;;;;;153.73;42.67;;;-1.30;99.90;;;;;;5033542;28;20034;-52
2023/01/26 01:19:24;;;;;;;158.57;45.27;;;-1.30;99.90;;;;;;5033583;28;20147;-54
2023/01/26 01:21:49;;;;;;;158.17;44.63;;;-1.30;99.90;;;;;;5033481;28;20068;-49
2023/01/26 01:24:15;;;;;;;152.33;41.80;;;-1.30;99.90;;;;;;5015575;28;20034;-51
2023/01/26 01:26:41;;;;;;;148.73;43.47;;;-1.30;99.90;;;;;;5015530;28;20546;-50
2023/01/26 01:29:11;;;;;;;147.80;43.83;;;-1.30;99.90;;;;;;5033530;28;20025;-51
2023/01/26 01:31:37;;;;;;;146.37;40.90;;;-1.30;99.90;;;;;;5033575;28;20505;-49
2023/01/26 01:34:03;;;;;;;146.33;40.93;;;-1.30;99.90;;;;;;5032986;28;20038;-50
2023/01/26 01:36:30;;;;;;;142.63;40.10;;;-1.30;99.90;;;;;;5015270;28;20042;-53
2023/01/26 01:38:56;;;;;;;144.53;40.73;;;-1.30;99.90;;;;;;5033016;28;20463;-51
2023/01/26 01:41:23;;;;;;;146.47;40.10;;;-1.30;99.90;;;;;;5015506;28;20515;-52
2023/01/26 01:43:51;;;;;;;143.23;39.27;;;-1.30;99.90;;;;;;5032770;28;20406;-51
2023/01/26 01:46:25;;;;;;;145.03;39.83;;;-1.30;99.90;;;;;;5015359;28;20041;-54
2023/01/26 01:49:00;;;;;;;138.97;38.53;;;-1.30;99.90;;;;;;5033089;28;20037;-52
2023/01/26 01:51:33;;;;;;;150.23;41.07;;;-1.30;99.90;;;;;;5033244;28;20037;-55
2023/01/26 01:54:04;;;;;;;132.63;38.53;;;-1.30;99.90;;;;;;5032635;28;20033;-49
2023/01/26 01:56:32;;;;;;;131.17;39.30;;;-1.30;99.90;;;;;;5015263;28;20037;-55
2023/01/26 01:59:01;;;;;;;133.20;38.47;;;-1.40;99.90;;;;;;5015012;28;20041;-54
2023/01/26 02:01:27;;;;;;;133.73;38.20;;;-1.40;99.90;;;;;;5032861;28;20021;-54
2023/01/26 02:03:58;;;;;;;133.67;37.57;;;-1.30;99.90;;;;;;5032999;28;20041;-53
2023/01/26 02:06:47;;;;;;;146.23;40.70;;;-1.30;99.90;;;;;;5014962;28;20032;-52
2023/01/26 02:10:17;;;;;;;145.40;38.80;;;-1.30;99.90;;;;;;5015045;28;20044;-52
2023/01/26 02:12:03;;;;;;;137.50;39.70;;;-1.30;99.90;;;;;;5014764;28;20560;-52
2023/01/26 02:14:31;;;;;;;136.57;36.67;;;-1.20;99.90;;;;;;5032554;28;20043;-49
2023/01/26 02:16:56;;;;;;;137.43;38.03;;;-1.20;99.90;;;;;;5032458;28;20025;-50
2023/01/26 02:19:57;;;;;;;126.50;36.70;;;-1.20;99.90;;;;;;5032420;28;20076;-51
2023/01/26 02:22:54;;;;;;;127.57;36.37;;;-1.10;99.90;;;;;;4977974;28;20038;-50
2023/01/26 02:25:56;;;;;;;123.63;34.40;;;-1.10;99.90;;;;;;5004157;28;20091;-53
2023/01/26 02:28:26;;;;;;;123.90;35.47;;;-1.10;99.90;;;;;;4916499;29;20288;-53
2023/01/26 02:30:54;;;;;;;137.50;36.80;;;-1.10;99.90;;;;;;4997628;28;20120;-53
2023/01/26 02:33:22;;;;;;;123.97;35.70;;;-1.10;99.90;;;;;;5014056;28;20037;-50
2023/01/26 02:35:48;;;;;;;131.30;36.57;;;-1.10;99.90;;;;;;5014346;28;20029;-52
2023/01/26 02:38:15;;;;;;;120.53;33.67;;;-1.00;99.90;;;;;;5031756;28;20443;-53
2023/01/26 02:41:03;;;;;;;126.40;35.00;;;-1.00;99.90;;;;;;5014069;28;20121;-53
2023/01/26 02:43:29;;;;;;;128.70;36.07;;;-1.00;99.90;;;;;;5031540;28;20044;-50
2023/01/26 02:45:56;;;;;;;125.13;36.13;;;-1.00;99.90;;;;;;5014062;28;20026;-53
2023/01/26 02:51:07;;;;;;;113.83;32.93;;;-0.90;99.90;;;;;;5031687;28;20116;-51
2023/01/26 02:53:33;;;;;;;115.97;35.23;;;-0.90;99.90;;;;;;4997206;28;20061;-52
2023/01/26 02:55:59;;;;;;;127.30;34.47;;;-0.90;99.90;;;;;;5013066;28;20032;-50
2023/01/26 02:58:24;;;;;;;119.57;34.53;;;-0.90;99.90;;;;;;5013480;28;20021;-51
2023/01/26 03:00:52;;;;;;;116.13;34.73;;;-0.90;99.90;;;;;;5013830;28;20669;-55
2023/01/26 03:03:23;;;;;;;106.90;32.47;;;-0.90;99.90;;;;;;5013603;28;20025;-50
2023/01/26 03:05:50;;;;;;;115.63;33.10;;;-0.90;99.90;;;;;;5013547;28;20025;-53
2023/01/26 03:08:16;;;;;;;111.30;33.83;;;-0.90;99.90;;;;;;5013477;28;20026;-51
2023/01/26 03:10:43;;;;;;;115.07;33.57;;;-0.90;99.90;;;;;;5013564;28;20029;-54
2023/01/26 03:13:09;;;;;;;116.93;35.83;;;-0.90;99.90;;;;;;5031172;28;20035;-52
2023/01/26 03:15:46;;;;;;;123.87;36.17;;;-1.00;99.90;;;;;;5013312;28;20030;-51
2023/01/26 03:29:17;;;;;;;125.63;35.17;;;-0.90;99.90;;;;;;5013351;28;20026;-53
2023/01/26 03:31:44;;;;;;;122.10;35.60;;;-0.90;99.90;;;;;;5013671;28;20036;-53
2023/01/26 03:34:10;;;;;;;124.07;36.27;;;-0.90;99.90;;;;;;5042894;23;20041;-48
2023/01/26 03:36:36;;;;;;;123.90;36.10;;;-0.80;99.90;;;;;;5029550;28;20121;-51
2023/01/26 03:39:06;;;;;;;125.80;35.77;;;-0.80;99.90;;;;;;5029699;28;20053;-48
2023/01/26 03:58:01;;;;;;;136.10;39.67;;;-0.70;99.90;;;;;;5029222;28;20033;-47
2023/01/26 04:00:28;;;;;;;131.70;37.80;;;-0.70;99.90;;;;;;5029076;28;20057;-50
2023/01/26 04:08:24;;;;;;;134.77;40.50;;;-0.70;99.90;;;;;;5028865;28;20052;-48
2023/01/26 04:10:55;;;;;;;128.77;37.33;;;-0.70;99.90;;;;;;5029076;28;20100;-52
2023/01/26 04:21:39;;;;;;;127.43;36.33;;;-0.70;99.90;;;;;;5029067;28;20125;-50
2023/01/26 04:24:21;;;;;;;136.77;36.73;;;-0.80;99.90;;;;;;5028684;28;20033;-48
2023/01/26 04:26:47;;;;;;;127.57;35.13;;;-0.70;99.90;;;;;;5028807;28;20025;-51
2023/01/26 04:29:21;;;;;;;115.37;34.13;;;-0.70;99.90;;;;;;5028937;28;20036;-52
2023/01/26 04:31:47;;;;;;;126.87;35.50;;;-0.70;99.90;;;;;;5028874;28;20029;-52
2023/01/26 04:34:18;;;;;;;132.50;36.23;;;-0.70;99.90;;;;;;5028748;28;20398;-52
2023/01/26 04:36:44;;;;;;;124.63;36.57;;;-0.70;99.90;;;;;;5028689;28;20038;-52
2023/01/26 04:39:10;;;;;;;125.33;35.40;;;-0.70;99.90;;;;;;5028761;28;20057;-52
2023/01/26 04:41:39;;;;;;;124.85;34.53;;;-0.70;99.90;;;;;;5028838;28;20017;-50
2023/01/26 04:44:08;;;;;;;119.45;34.08;;;-0.70;99.90;;;;;;5028561;28;20034;-51
2023/01/26 04:46:34;;;;;;;118.37;33.03;;;-0.70;99.90;;;;;;5028649;28;20037;-49
2023/01/26 04:49:01;;;;;;;120.20;34.30;;;-0.70;99.90;;;;;;5028831;28;20037;-51
2023/01/26 04:51:27;;;;;;;114.70;32.07;;;-0.80;99.90;;;;;;5028748;28;20041;-52
2023/01/26 04:53:54;;;;;;;129.63;34.97;;;-0.70;99.90;;;;;;5028558;28;20079;-48
2023/01/26 04:56:28;;;;;;;123.13;33.60;;;-0.70;99.90;;;;;;5028442;28;20460;-49
2023/01/26 04:58:56;;;;;;;118.03;32.47;;;-0.70;99.90;;;;;;5028785;28;20037;-49
2023/01/26 05:01:23;;;;;;;115.45;33.53;;;-0.70;99.90;;;;;;5028570;28;20022;-51
2023/01/26 05:03:49;;;;;;;128.23;34.40;;;-0.80;99.90;;;;;;5028404;28;20033;-48
2023/01/26 05:06:15;;;;;;;114.13;32.70;;;-0.80;99.90;;;;;;5029780;28;20363;-49
2023/01/26 05:08:43;;;;;;;116.67;34.60;;;-0.80;99.90;;;;;;5028625;28;20453;-49
2023/01/26 05:11:09;;;;;;;113.90;32.90;;;-0.80;99.90;;;;;;5028492;28;20025;-52
2023/01/26 05:13:46;;;;;;;124.00;34.20;;;-0.70;99.90;;;;;;5028345;28;20029;-49
2023/01/26 05:16:32;;;;;;;114.80;33.20;;;-0.70;99.90;;;;;;5008518;28;20347;-50
2023/01/26 05:19:00;;;;;;;119.83;32.33;;;-0.70;99.90;;;;;;5030437;28;20036;-50
2023/01/26 05:21:39;;;;;;;117.27;34.20;;;-0.70;99.90;;;;;;5032000;28;20033;-48
2023/01/26 05:24:07;;;;;;;115.03;34.27;;;-0.80;99.90;;;;;;5033117;28;20390;-50
2023/01/26 05:27:19;;;;;;;123.20;33.43;;;-0.90;99.90;;;;;;5033512;28;20635;-50
2023/01/26 05:29:39;;;;;;;125.13;35.23;;;-0.90;99.90;;;;;;5031943;28;20072;-48
2023/01/26 05:32:05;;;;;;;137.47;35.70;;;-1.00;99.90;;;;;;5033159;28;20037;-48
2023/01/26 05:34:32;;;;;;;139.00;35.80;;;-1.00;99.90;;;;;;5031483;28;20065;-49
2023/01/26 05:36:58;;;;;;;146.40;36.93;;;-1.00;99.90;;;;;;5031527;28;20069;-50
2023/01/26 05:39:24;;;;;;;134.40;33.97;;;-1.00;99.90;;;;;;5031591;28;20029;-50
2023/01/26 05:41:50;;;;;;;132.37;35.00;;;-0.90;99.90;;;;;;5031704;28;20033;-47
2023/01/26 05:44:36;;;;;;;113.63;31.73;;;-0.90;99.90;;;;;;5031345;28;20037;-48
2023/01/26 05:47:08;;;;;;;126.30;32.93;;;-0.90;99.90;;;;;;5031391;28;20513;-48
2023/01/26 05:49:34;;;;;;;122.93;32.63;;;-0.90;99.90;;;;;;5031477;28;20030;-51
2023/01/26 05:51:59;;;;;;;131.00;35.00;;;-0.90;99.90;;;;;;5031469;28;20029;-51
2023/01/26 05:54:25;;;;;;;122.47;33.50;;;-0.90;99.90;;;;;;5031353;28;20041;-49
2023/01/26 05:56:56;;;;;;;115.40;31.80;;;-0.90;99.90;;;;;;5031357;28;20072;-48
2023/01/26 05:59:23;;;;;;;116.70;32.03;;;-0.90;99.90;;;;;;5031168;28;20088;-52
2023/01/26 06:01:49;;;;;;;102.47;30.27;;;-0.90;99.90;;;;;;5031326;28;20029;-49
2023/01/26 06:04:16;;;;;;;113.00;31.27;;;-0.90;99.90;;;;;;5031015;28;20029;-50
2023/01/26 06:06:52;;;;;;;108.37;30.97;;;-0.90;99.90;;;;;;5031157;28;20028;-51
2023/01/26 06:09:24;;;;;;;108.67;29.13;;;-0.90;99.90;;;;;;5031071;28;20029;-49
2023/01/26 06:12:17;;;;;;;115.20;32.03;;;-0.90;99.90;;;;;;5032518;28;20045;-49
2023/01/26 06:14:54;;;;;;;115.40;30.00;;;-0.80;99.90;;;;;;5032224;28;20045;-48
2023/01/26 06:17:20;;;;;;;109.53;30.80;;;-0.80;99.90;;;;;;5030706;28;20508;-52
2023/01/26 06:19:50;;;;;;;116.20;32.17;;;-0.70;99.90;;;;;;5030737;28;20027;-48
2023/01/26 06:22:16;;;;;;;110.60;31.17;;;-0.70;99.90;;;;;;5030842;28;20033;-51
2023/01/26 06:24:46;;;;;;;104.40;29.27;;;-0.70;99.90;;;;;;5030605;28;20079;-48
2023/01/26 06:27:14;;;;;;;97.33;28.53;;;-0.60;99.90;;;;;;5030724;28;20090;-52
2023/01/26 06:29:43;;;;;;;107.87;29.90;;;-0.70;99.90;;;;;;5030748;28;20092;-49
2023/01/26 06:32:10;;;;;;;128.13;30.80;;;-0.70;99.90;;;;;;5029951;28;20036;-49
2023/01/26 06:34:36;;;;;;;103.23;29.17;;;-0.60;99.90;;;;;;5030271;28;20045;-49
2023/01/26 06:37:02;;;;;;;96.67;28.87;;;-0.60;99.90;;;;;;5014253;28;20077;-50
2023/01/26 06:39:33;;;;;;;98.10;27.70;;;-0.60;99.90;;;;;;5030488;28;20034;-51
2023/01/26 06:42:00;;;;;;;94.73;26.47;;;-0.50;99.90;;;;;;5030576;28;20029;-50
2023/01/26 06:44:26;;;;;;;91.50;28.10;;;-0.50;99.90;;;;;;5030214;28;20025;-55
2023/01/26 06:46:51;;;;;;;95.87;27.93;;;-0.60;99.90;;;;;;5031562;28;20031;-55
2023/01/26 06:49:17;;;;;;;95.83;27.30;;;-0.50;99.90;;;;;;5030139;28;20034;-51
2023/01/26 06:52:02;;;;;;;96.30;27.53;;;-0.50;99.90;;;;;;5030393;28;20026;-52
2023/01/26 06:54:41;;;;;;;81.00;26.67;;;-0.50;99.90;;;;;;5030112;28;20060;-49
2023/01/26 06:57:20;;;;;;;89.00;26.57;;;-0.50;99.90;;;;;;5030041;28;20033;-52
2023/01/26 07:00:12;;;;;;;93.13;26.73;;;-0.50;99.90;;;;;;5030138;28;20100;-52
2023/01/26 07:02:51;;;;;;;90.23;25.77;;;-0.50;99.90;;;;;;5031361;28;20083;-53
2023/01/26 07:05:17;;;;;;;89.87;26.17;;;-0.50;99.90;;;;;;5031757;28;20282;-49
2023/01/26 07:07:42;;;;;;;93.67;27.03;;;-0.40;99.90;;;;;;5031203;28;20037;-48
2023/01/26 07:10:09;;;;;;;93.90;27.33;;;-0.50;99.90;;;;;;5031261;28;20033;-51
2023/01/26 07:12:43;;;;;;;91.23;26.70;;;-0.50;99.90;;;;;;5031398;28;20029;-52
2023/01/26 07:15:10;;;;;;;93.03;27.97;;;-0.40;99.90;;;;;;5031161;28;20026;-49
2023/01/26 07:17:37;;;;;;;95.57;27.00;;;-0.50;99.90;;;;;;5031443;28;20095;-48
2023/01/26 07:20:03;;;;;;;93.83;26.30;;;-0.50;99.90;;;;;;5031157;28;20136;-49
2023/01/26 07:22:28;;;;;;;89.10;26.67;;;-0.60;99.90;;;;;;5031078;28;20057;-51
2023/01/26 07:24:54;;;;;;;86.67;25.80;;;-0.50;99.90;;;;;;5030993;28;20030;-47
2023/01/26 07:27:20;;;;;;;92.77;26.97;;;-0.50;99.90;;;;;;5030970;28;20071;-47
2023/01/26 07:29:45;;;;;;;90.23;26.33;;;-0.50;99.90;;;;;;5031104;28;20060;-50
2023/01/26 07:32:11;;;;;;;96.47;28.17;;;-0.40;99.90;;;;;;5031080;28;20048;-51
2023/01/26 07:34:37;;;;;;;85.43;26.43;;;-0.40;99.90;;;;;;5030621;28;20065;-49
2023/01/26 07:37:04;;;;;;;88.27;26.63;;;-0.40;99.90;;;;;;5030819;28;20033;-47
2023/01/26 07:39:30;;;;;;;87.67;26.00;;;-0.40;99.90;;;;;;5030819;28;20037;-47
2023/01/26 07:41:56;;;;;;;90.27;26.33;;;-0.40;99.90;;;;;;5030816;28;20068;-48
2023/01/26 07:44:39;;;;;;;88.60;26.83;;;-0.30;99.90;;;;;;5029628;28;20312;-52
2023/01/26 07:47:05;;;;;;;82.40;25.67;;;-0.30;99.90;;;;;;5030979;28;20025;-48
2023/01/26 07:49:31;;;;;;;90.40;26.73;;;-0.30;99.90;;;;;;5030882;28;20474;-53
2023/01/26 07:51:56;;;;;;;88.20;27.13;;;-0.30;99.90;;;;;;5030896;28;20034;-47
2023/01/26 07:54:22;;;;;;;84.47;26.03;;;-0.30;99.90;;;;;;5030486;28;20043;-49
2023/01/26 07:56:52;;;;;;;81.20;26.20;;;-0.30;99.90;;;;;;5029392;28;20033;-48
2023/01/26 07:59:17;;;;;;;82.63;27.15;;;-0.20;99.90;;;;;;5030585;28;20474;-48
2023/01/26 08:01:43;;;;;;;91.67;27.63;;;-0.20;99.90;;;;;;5030522;28;20084;-49
2023/01/26 08:04:10;;;;;;;87.10;25.93;;;-0.10;99.90;;;;;;5030335;28;20032;-47
2023/01/26 08:06:36;;;;;;;84.80;25.47;;;-0.10;99.90;;;;;;5030539;28;20418;-51
2023/01/26 08:09:02;;;;;;;87.87;27.37;;;-0.10;99.90;;;;;;5030568;28;20108;-50
2023/01/26 08:11:28;;;;;;;92.37;27.00;;;0.00;99.90;;;;;;5030615;28;20029;-50
2023/01/26 08:13:54;;;;;;;87.30;26.87;;;0.00;99.90;;;;;;5030031;28;20378;-48
2023/01/26 08:16:20;;;;;;;82.03;25.87;;;0.00;99.90;;;;;;5030238;28;20115;-48
2023/01/26 08:18:46;;;;;;;88.40;28.87;;;0.10;99.90;;;;;;5030570;28;20092;-48
2023/01/26 08:21:14;;;;;;;89.30;29.13;;;0.10;99.90;;;;;;5030553;28;20456;-52
2023/01/26 08:23:39;;;;;;;93.37;28.77;;;0.00;99.90;;;;;;5030023;28;20100;-47
2023/01/26 08:26:08;;;;;;;90.03;28.23;;;-0.10;99.90;;;;;;5030341;28;20451;-47
2023/01/26 08:28:34;;;;;;;78.30;23.42;;;-0.20;99.90;;;;;;5029965;28;20032;-47
2023/01/26 08:31:12;;;;;;;93.23;27.20;;;-0.30;99.90;;;;;;5030322;28;20032;-51
2023/01/26 08:33:41;;;;;;;88.97;27.33;;;-0.20;99.90;;;;;;5030235;28;20464;-49
2023/01/26 08:36:10;;;;;;;92.37;27.27;;;-0.20;99.90;;;;;;5030385;28;20025;-49
2023/01/26 08:38:36;;;;;;;85.15;27.00;;;-0.10;99.90;;;;;;5028599;28;20025;-51
2023/01/26 08:41:03;;;;;;;88.17;27.40;;;-0.10;99.90;;;;;;5030315;28;20539;-51
2023/01/26 08:43:29;;;;;;;85.40;26.73;;;-0.10;99.90;;;;;;5029827;28;20022;-48
2023/01/26 08:45:55;;;;;;;92.50;28.47;;;0.00;99.90;;;;;;5029962;28;20022;-49
2023/01/26 08:48:21;;;;;;;90.27;27.87;;;0.00;99.90;;;;;;5029938;28;20057;-51
2023/01/26 08:50:47;;;;;;;89.50;27.53;;;0.00;99.90;;;;;;5030274;28;20068;-49
2023/01/26 08:53:13;;;;;;;87.53;27.27;;;0.10;99.90;;;;;;5030091;28;20063;-48
2023/01/26 08:55:39;;;;;;;94.33;27.87;;;0.10;99.90;;;;;;5033180;28;20033;-49
2023/01/26 08:58:04;;;;;;;83.57;26.67;;;0.10;99.90;;;;;;5033637;28;20040;-52
2023/01/26 09:00:30;;;;;;;86.30;26.83;;;0.10;99.90;;;;;;5033580;28;20095;-48
2023/01/26 09:03:04;;;;;;;87.90;25.97;;;0.10;99.90;;;;;;5033859;28;20037;-48
2023/01/26 09:05:38;;;;;;;84.73;26.70;;;0.10;99.90;;;;;;5032395;28;20102;-50
2023/01/26 09:08:06;;;;;;;92.90;27.47;;;0.10;99.90;;;;;;5033601;28;20398;-50
2023/01/26 09:10:32;;;;;;;89.97;27.50;;;0.00;99.90;;;;;;5032200;28;20029;-50
2023/01/26 09:12:59;;;;;;;104.00;29.27;;;0.00;99.90;;;;;;5033392;28;20397;-52
2023/01/26 09:15:25;;;;;;;96.23;27.87;;;0.00;99.90;;;;;;5033388;28;20328;-48
2023/01/26 09:17:51;;;;;;;89.90;25.90;;;-0.10;99.90;;;;;;5033292;28;20490;-51
2023/01/26 09:20:17;;;;;;;101.57;28.30;;;-0.10;99.90;;;;;;5033389;28;20073;-52
2023/01/26 09:22:43;;;;;;;96.33;26.53;;;-0.10;99.90;;;;;;5033421;28;20033;-48
2023/01/26 09:25:09;;;;;;;91.23;25.77;;;0.00;99.90;;;;;;5033140;28;20037;-51
2023/01/26 09:27:35;;;;;;;92.73;25.37;;;-0.10;99.90;;;;;;5032929;28;20044;-50
2023/01/26 09:30:03;;;;;;;84.10;24.40;;;-0.10;99.90;;;;;;5033362;28;20037;-49
2023/01/26 09:32:28;;;;;;;86.80;24.07;;;-0.10;99.90;;;;;;5033151;28;20044;-51
2023/01/26 09:34:55;;;;;;;79.60;23.90;;;-0.10;99.90;;;;;;5044695;23;20438;-49
2023/01/26 09:37:20;;;;;;;89.27;25.87;;;0.00;99.90;;;;;;5032931;28;20033;-47
2023/01/26 09:39:46;;;;;;;78.07;24.40;;;0.00;99.90;;;;;;5032762;28;20498;-48
2023/01/26 09:42:24;;;;;;;83.10;23.10;;;0.00;99.90;;;;;;5033146;28;20445;-48
2023/01/26 09:45:12;;;;;;;76.07;23.00;;;0.10;99.90;;;;;;5032622;28;20398;-49
2023/01/26 09:48:03;;;;;;;67.28;21.17;;;0.20;99.90;;;;;;5032731;28;20029;-48
2023/01/26 09:50:40;;;;;;;68.23;21.57;;;0.20;99.90;;;;;;5032743;28;20057;-46
2023/01/26 09:53:47;;;;;;;80.50;24.63;;;0.30;99.90;;;;;;5032705;28;20053;-47
2023/01/26 09:56:19;;;;;;;84.77;25.07;;;0.30;99.90;;;;;;5032305;28;20045;-49
2023/01/26 09:58:54;;;;;;;75.83;22.53;;;0.40;99.90;;;;;;5032476;28;20033;-52
2023/01/26 10:01:50;;;;;;;71.87;22.47;;;0.40;99.90;;;;;;5032734;28;20042;-51
2023/01/26 10:04:39;;;;;;;67.60;22.07;;;0.40;99.90;;;;;;5032249;28;20029;-50
2023/01/26 10:07:10;;;;;;;73.07;22.52;;;0.40;99.90;;;;;;5032412;28;20064;-47
2023/01/26 10:09:48;;;;;;;71.70;22.77;;;0.40;99.90;;;;;;5032390;28;20037;-48
2023/01/26 10:12:23;;;;;;;76.47;23.42;;;0.40;99.90;;;;;;5032391;28;20048;-47
2023/01/26 10:14:54;;;;;;;67.97;21.17;;;0.50;99.90;;;;;;5031969;28;20037;-49
2023/01/26 10:17:31;;;;;;;65.80;21.63;;;0.50;99.90;;;;;;5032021;28;20049;-48
2023/01/26 10:20:05;;;;;;;57.50;18.67;;;0.50;99.90;;;;;;5032179;28;20036;-46
2023/01/26 10:22:43;;;;;;;48.57;16.70;;;0.50;99.90;;;;;;5032155;28;20474;-47
2023/01/26 10:25:17;;;;;;;50.20;15.77;;;0.40;99.90;;;;;;5032137;28;20067;-46
2023/01/26 10:27:44;;;;;;;47.77;15.23;;;0.50;99.90;;;;;;5031718;28;20095;-46
2023/01/26 10:30:18;;;;;;;42.50;14.27;;;0.50;99.90;;;;;;5031992;28;20037;-51
2023/01/26 10:32:46;;;;;;;43.47;15.47;;;0.50;99.90;;;;;;5032130;28;20048;-48
2023/01/26 10:35:21;;;;;;;51.60;16.10;;;0.50;99.90;;;;;;5031663;28;20132;-49
2023/01/26 10:37:48;;;;;;;56.60;19.23;;;0.60;99.90;;;;;;5031818;28;20044;-47
2023/01/26 10:40:16;;;;;;;55.03;18.80;;;0.70;99.90;;;;;;5031624;28;20035;-46
2023/01/26 10:42:56;;;;;;;52.63;18.30;;;0.80;99.90;;;;;;5031759;28;20075;-46
2023/01/26 10:45:32;;;;;;;48.80;17.90;;;0.90;99.90;;;;;;5031723;28;20037;-46
2023/01/26 10:48:13;;;;;;;46.90;17.20;;;0.90;99.90;;;;;;5031511;28;20033;-46
2023/01/26 10:50:39;;;;;;;47.17;17.30;;;0.90;99.90;;;;;;5030202;28;20029;-45
2023/01/26 10:53:05;;;;;;;45.03;16.43;;;0.90;99.90;;;;;;5031667;28;20099;-45
2023/01/26 10:55:32;;;;;;;43.57;15.17;;;1.00;99.90;;;;;;5031317;28;20037;-48
2023/01/26 10:57:59;;;;;;;42.93;15.20;;;0.90;99.90;;;;;;5031281;28;20124;-45
2023/01/26 11:00:33;;;;;;;42.60;15.23;;;0.90;99.90;;;;;;5030117;28;20033;-47
2023/01/26 11:03:17;;;;;;;45.50;16.50;;;0.90;99.90;;;;;;5031277;28;20046;-48
2023/01/26 11:05:46;;;;;;;44.60;15.87;;;0.90;99.90;;;;;;5030370;28;20393;-47
2023/01/26 11:08:35;;;;;;;41.40;15.30;;;0.90;99.90;;;;;;5031164;28;20045;-46
2023/01/26 11:11:09;;;;;;;40.55;14.90;;;1.00;99.90;;;;;;5031293;28;20343;-45
2023/01/26 11:13:35;;;;;;;34.67;12.83;;;1.00;99.90;;;;;;5030809;28;20162;-44
2023/01/26 11:16:09;;;;;;;36.90;12.57;;;0.90;99.90;;;;;;5031235;28;20075;-44
2023/01/26 11:18:51;;;;;;;33.50;13.50;;;1.00;99.90;;;;;;5030531;28;20040;-45
2023/01/26 11:21:32;;;;;;;37.20;13.20;;;0.90;99.90;;;;;;5031576;28;20034;-47
2023/01/26 11:24:03;;;;;;;36.70;12.10;;;1.00;99.90;;;;;;5030689;28;20057;-44
2023/01/26 11:26:34;;;;;;;34.93;13.13;;;0.90;99.90;;;;;;5031014;28;20029;-45
2023/01/26 11:29:21;;;;;;;33.70;13.00;;;0.80;99.90;;;;;;5030831;28;20129;-45
2023/01/26 11:32:24;;;;;;;35.77;12.73;;;0.80;99.90;;;;;;5031026;28;20120;-45
2023/01/26 11:35:20;;;;;;;36.67;13.40;;;0.80;99.90;;;;;;5030400;28;20041;-44
2023/01/26 11:37:54;;;;;;;35.37;13.17;;;0.80;99.90;;;;;;5013123;28;20041;-44
2023/01/26 11:40:39;;;;;;;35.07;13.27;;;0.80;99.90;;;;;;5030539;28;20041;-44
2023/01/26 11:43:26;;;;;;;32.07;11.53;;;0.90;99.90;;;;;;5030589;28;20029;-45
2023/01/26 11:46:08;;;;;;;40.90;13.63;;;0.90;99.90;;;;;;5030701;28;20087;-44
2023/01/26 11:48:53;;;;;;;41.40;13.53;;;0.80;99.90;;;;;;5030526;28;20025;-44
2023/01/26 11:51:43;;;;;;;37.77;13.37;;;0.90;99.90;;;;;;5030688;28;20025;-45
2023/01/26 11:54:34;;;;;;;41.97;13.80;;;0.90;99.90;;;;;;5030475;28;20395;-44
2023/01/26 11:57:14;;;;;;;44.40;14.57;;;0.90;99.90;;;;;;5030434;28;20061;-44
2023/01/26 12:00:04;;;;;;;41.15;14.35;;;0.80;99.90;;;;;;5030565;28;20397;-44
2023/01/26 12:02:40;;;;;;;42.30;14.65;;;0.80;99.90;;;;;;5030739;28;20401;-50
2023/01/26 12:05:19;;;;;;;45.57;15.60;;;0.80;99.90;;;;;;5030195;28;20064;-43
2023/01/26 12:08:18;;;;;;;39.80;14.38;;;0.90;99.90;;;;;;5030135;28;20028;-43
2023/01/26 12:10:56;;;;;;;43.40;15.18;;;1.00;99.90;;;;;;5030314;28;20041;-46
2023/01/26 12:13:42;;;;;;;40.20;14.80;;;1.10;99.90;;;;;;5030040;28;20529;-45
2023/01/26 12:16:22;;;;;;;42.10;14.83;;;1.10;99.90;;;;;;5030182;28;20140;-48
2023/01/26 12:18:58;;;;;;;39.30;14.23;;;1.10;99.90;;;;;;5030251;28;20060;-43
2023/01/26 12:21:27;;;;;;;35.43;13.10;;;1.20;99.90;;;;;;5030304;28;20041;-49
2023/01/26 12:24:00;;;;;;;34.80;11.95;;;1.20;99.90;;;;;;5029994;28;20026;-44
2023/01/26 12:26:31;;;;;;;37.93;12.63;;;1.30;99.90;;;;;;5029965;28;20036;-50
2023/01/26 12:29:19;;;;;;;31.10;12.73;;;1.20;99.90;;;;;;5032722;28;20478;-46
2023/01/26 12:32:10;;;;;;;32.90;12.87;;;1.10;99.90;;;;;;5034319;28;20104;-45
2023/01/26 12:34:35;;;;;;;32.47;12.67;;;1.00;99.90;;;;;;5033849;28;20452;-44
2023/01/26 12:37:19;;;;;;;34.93;14.03;;;1.00;99.90;;;;;;5033984;28;20034;-47
2023/01/26 12:40:07;;;;;;;31.17;12.90;;;1.00;99.90;;;;;;5033838;28;20034;-44
2023/01/26 12:42:51;;;;;;;38.13;14.00;;;1.10;99.90;;;;;;5034024;28;20120;-43
2023/01/26 12:45:27;;;;;;;37.90;14.17;;;1.10;99.90;;;;;;5033675;28;20168;-49
2023/01/26 12:48:00;;;;;;;32.73;12.87;;;1.20;99.90;;;;;;5033769;28;20029;-50
2023/01/26 12:50:51;;;;;;;37.30;14.43;;;1.10;99.90;;;;;;5033944;28;20032;-45
2023/01/26 12:53:29;;;;;;;43.23;15.30;;;1.20;99.90;;;;;;5033888;28;20444;-52
2023/01/26 12:56:20;;;;;;;45.13;15.10;;;1.10;99.90;;;;;;5033707;28;20044;-49
2023/01/26 12:58:48;;;;;;;40.67;14.13;;;1.00;99.90;;;;;;5033861;28;20033;-49
2023/01/26 13:01:20;;;;;;;45.40;15.00;;;1.00;99.90;;;;;;5033866;28;20340;-47
2023/01/26 13:03:58;;;;;;;41.40;14.37;;;1.10;99.90;;;;;;5034005;28;20167;-46
2023/01/26 13:06:27;;;;;;;43.13;14.63;;;1.10;99.90;;;;;;5033500;28;20075;-45
2023/01/26 13:09:22;;;;;;;47.63;15.00;;;1.00;99.90;;;;;;5033528;28;20501;-46
2023/01/26 13:11:58;;;;;;;46.57;15.37;;;1.10;99.90;;;;;;5033734;28;20405;-45
2023/01/26 13:14:35;;;;;;;47.37;16.43;;;1.10;99.90;;;;;;5033269;28;20025;-46
2023/01/26 13:17:16;;;;;;;52.13;16.17;;;1.10;99.90;;;;;;5033285;28;20103;-47
2023/01/26 13:19:42;;;;;;;52.00;16.27;;;1.10;99.90;;;;;;5033533;28;20030;-45
2023/01/26 13:22:23;;;;;;;57.10;19.73;;;1.10;99.90;;;;;;5033536;28;20500;-46
2023/01/26 13:24:56;;;;;;;63.63;19.57;;;1.20;99.90;;;;;;5033158;28;20394;-46
2023/01/26 13:27:37;;;;;;;71.23;19.60;;;1.20;99.90;;;;;;5033413;28;20029;-47
2023/01/26 13:30:26;;;;;;;65.53;20.37;;;1.20;99.90;;;;;;5033218;28;20037;-45
2023/01/26 13:33:12;;;;;;;68.77;20.83;;;1.20;99.90;;;;;;5033187;28;20478;-45